Yuma, Arizona
Current Conditions -  °F | °C
As of 12:57 PM on Sunday 23 Nov 2014 (Local Time) from KNYL Reporting Station
Broken Clouds Broken Clouds  
Wind Chill: 76°   Ceiling: 30000
Heat Index: 76°   Visibility: 10mi
Dew Point: 13°   Wind: 23mph
Humidity: 9%   Direction: 360°N
Pressure: 30.1"   Gusts: 29mph
Location:  32.68°N, 114.62°W
Report Text: KNYL 231957Z 36020G25KT 10SM BKN300 24/M11 A3010 RMK AO2 SLP192 T02441106 $
Loading
Personal Weather Stations






























Interactive Weather Map New forecast layout! Learn more

10-Day Weather Forecast

Advertisements
Track Severe Weather on mobile